createdAt,value
2023-04-22T00:00:54.913Z,10.23
2023-04-22T00:03:24.953Z,10.19
2023-04-22T00:05:51.688Z,9.99
2023-04-22T00:08:18.189Z,10.02
2023-04-22T00:10:44.613Z,9.96
2023-04-22T00:13:11.103Z,9.93
2023-04-22T00:15:37.720Z,9.87
2023-04-22T00:18:04.317Z,9.75
2023-04-22T00:20:33.026Z,9.77
2023-04-22T00:22:59.539Z,9.72
2023-04-22T00:25:26.060Z,9.66
2023-04-22T00:27:52.528Z,9.60
2023-04-22T00:30:19.131Z,9.54
2023-04-22T00:32:45.759Z,9.50
2023-04-22T00:35:12.212Z,9.48
2023-04-22T00:37:38.649Z,9.39
2023-04-22T00:40:06.885Z,9.41
2023-04-22T00:42:33.530Z,9.32
2023-04-22T00:45:00.657Z,9.32
2023-04-22T00:47:28.009Z,9.32
2023-04-22T00:49:55.053Z,9.25
2023-04-22T00:52:21.495Z,9.25
2023-04-22T00:54:49.621Z,9.25
2023-04-22T00:57:17.099Z,9.21
2023-04-22T00:59:44.433Z,9.16
2023-04-22T01:02:11.472Z,9.13
2023-04-22T01:04:38.833Z,9.10
2023-04-22T01:07:05.375Z,9.08
2023-04-22T01:09:31.868Z,9.03
2023-04-22T01:11:58.291Z,9.04
2023-04-22T01:14:25.277Z,9.08
2023-04-22T01:16:53.994Z,9.12
2023-04-22T01:19:20.869Z,9.10
2023-04-22T01:21:49.467Z,9.07
2023-04-22T01:24:15.907Z,9.01
2023-04-22T01:26:42.553Z,8.94
2023-04-22T01:29:09.248Z,8.92
2023-04-22T01:31:37.901Z,8.91
2023-04-22T01:34:04.434Z,8.85
2023-04-22T01:36:32.710Z,8.82
2023-04-22T01:38:59.769Z,8.79
2023-04-22T01:41:26.749Z,8.78
2023-04-22T01:43:54.412Z,8.72
2023-04-22T01:46:20.941Z,8.61
2023-04-22T01:48:51.471Z,8.60
2023-04-22T01:51:21.459Z,8.62
2023-04-22T01:53:48.634Z,8.56
2023-04-22T01:56:15.814Z,8.59
2023-04-22T01:58:42.886Z,8.61
2023-04-22T02:01:10.975Z,8.63
2023-04-22T02:03:37.645Z,8.57
2023-04-22T02:06:04.801Z,8.60
2023-04-22T02:08:31.620Z,8.51
2023-04-22T02:11:00.405Z,8.46
2023-04-22T02:13:34.257Z,8.47
2023-04-22T02:16:01.131Z,8.43
2023-04-22T02:18:27.617Z,8.47
2023-04-22T02:20:54.048Z,8.43
2023-04-22T02:23:20.817Z,8.43
2023-04-22T02:25:51.027Z,8.41
2023-04-22T02:28:18.132Z,8.40
2023-04-22T02:30:47.531Z,8.38
2023-04-22T02:33:13.990Z,8.42
2023-04-22T02:35:40.519Z,8.50
2023-04-22T02:38:07.074Z,8.58
2023-04-22T02:40:33.570Z,8.61
2023-04-22T02:43:00.282Z,8.64
2023-04-22T02:45:26.786Z,8.66
2023-04-22T02:47:53.295Z,8.72
2023-04-22T02:50:19.897Z,8.69
2023-04-22T02:52:46.346Z,8.71
2023-04-22T02:55:12.801Z,8.71
2023-04-22T02:57:39.216Z,8.73
2023-04-22T03:00:06.419Z,8.78
2023-04-22T03:02:33.083Z,8.79
2023-04-22T03:05:00.854Z,8.73
2023-04-22T03:07:27.415Z,8.71
2023-04-22T03:09:55.794Z,8.73
2023-04-22T03:12:22.365Z,8.75
2023-04-22T03:14:48.845Z,8.86
2023-04-22T03:17:15.270Z,8.87
2023-04-22T03:19:43.215Z,8.88
2023-04-22T03:22:10.000Z,8.91
2023-04-22T03:24:36.488Z,8.92
2023-04-22T03:27:03.965Z,8.97
2023-04-22T03:29:30.450Z,8.90
2023-04-22T03:31:56.971Z,8.91
2023-04-22T03:34:23.464Z,8.92
2023-04-22T03:36:49.910Z,8.91
2023-04-22T03:39:16.338Z,8.92
2023-04-22T03:41:42.768Z,8.89
2023-04-22T03:44:09.294Z,8.95
2023-04-22T03:46:35.699Z,8.93
2023-04-22T03:49:02.362Z,8.82
2023-04-22T03:51:29.053Z,8.94
2023-04-22T03:53:55.499Z,8.92
2023-04-22T03:56:21.997Z,8.88
2023-04-22T03:58:48.403Z,8.94
2023-04-22T04:01:14.821Z,8.88
2023-04-22T04:03:41.444Z,8.91
2023-04-22T04:06:08.415Z,8.85
2023-04-22T04:08:34.893Z,8.86
2023-04-22T04:11:01.365Z,8.82
2023-04-22T04:13:32.096Z,8.92
2023-04-22T04:16:00.186Z,8.85
2023-04-22T04:18:27.328Z,8.91
2023-04-22T04:20:53.785Z,8.92
2023-04-22T04:23:20.172Z,8.93
2023-04-22T04:25:46.804Z,8.90
2023-04-22T04:28:13.848Z,8.88
2023-04-22T04:30:41.687Z,8.93
2023-04-22T04:33:08.216Z,8.88
2023-04-22T04:35:36.233Z,8.98
2023-04-22T04:38:02.704Z,8.94
2023-04-22T04:40:29.966Z,9.00
2023-04-22T04:42:57.535Z,9.01
2023-04-22T04:45:24.622Z,8.99
2023-04-22T04:47:52.805Z,8.99
2023-04-22T04:50:22.572Z,9.00
2023-04-22T04:52:49.159Z,9.01
2023-04-22T04:55:16.261Z,9.04
2023-04-22T04:57:45.219Z,9.03
2023-04-22T05:00:13.819Z,9.04
2023-04-22T05:02:41.082Z,9.12
2023-04-22T05:05:08.930Z,9.07
2023-04-22T05:07:38.371Z,9.12
2023-04-22T05:10:05.428Z,9.17
2023-04-22T05:12:31.869Z,9.18
2023-04-22T05:14:58.389Z,9.20
2023-04-22T05:17:25.111Z,9.17
2023-04-22T05:19:51.552Z,9.23
2023-04-22T05:22:18.348Z,9.25
2023-04-22T05:24:44.914Z,9.28
2023-04-22T05:27:12.038Z,9.30
2023-04-22T05:29:38.701Z,9.28
2023-04-22T05:32:08.248Z,9.29
2023-04-22T05:34:35.606Z,9.31
2023-04-22T05:37:05.746Z,9.38
2023-04-22T05:39:32.549Z,9.38
2023-04-22T05:41:59.076Z,9.40
2023-04-22T05:44:25.495Z,9.43
2023-04-22T05:46:51.912Z,9.46
2023-04-22T05:49:18.381Z,9.47
2023-04-22T05:51:44.837Z,9.53
2023-04-22T05:54:11.300Z,9.57
2023-04-22T05:56:37.879Z,9.64
2023-04-22T05:59:04.378Z,9.70
2023-04-22T06:01:30.966Z,9.77
2023-04-22T06:03:57.848Z,9.81
2023-04-22T06:06:24.647Z,9.84
2023-04-22T06:08:51.157Z,9.89
2023-04-22T06:11:18.005Z,9.91
2023-04-22T06:13:44.422Z,9.97
2023-04-22T06:16:10.969Z,10.00
2023-04-22T06:18:38.333Z,10.02
2023-04-22T06:21:05.264Z,10.07
2023-04-22T06:23:31.784Z,10.07
2023-04-22T06:26:01.656Z,10.21
2023-04-22T06:28:28.600Z,10.23
2023-04-22T06:30:55.162Z,10.32
2023-04-22T06:33:21.899Z,10.43
2023-04-22T06:35:48.402Z,10.49
2023-04-22T06:38:15.229Z,10.54
2023-04-22T06:40:41.697Z,10.58
2023-04-22T06:43:08.094Z,10.70
2023-04-22T06:45:34.620Z,10.72
2023-04-22T06:48:01.217Z,10.77
2023-04-22T06:50:27.733Z,10.80
2023-04-22T06:52:54.648Z,10.91
2023-04-22T06:55:21.705Z,11.00
2023-04-22T06:57:48.238Z,11.16
2023-04-22T07:00:14.984Z,11.27
2023-04-22T07:02:41.883Z,11.39
2023-04-22T07:05:08.505Z,11.55
2023-04-22T07:07:34.968Z,11.68
2023-04-22T07:10:01.466Z,11.72
2023-04-22T07:12:27.974Z,11.87
2023-04-22T07:14:54.477Z,11.88
2023-04-22T07:17:22.864Z,11.96
2023-04-22T07:19:49.617Z,11.90
2023-04-22T07:22:16.068Z,12.12
2023-04-22T07:24:42.583Z,12.18
2023-04-22T07:27:09.054Z,12.33
2023-04-22T07:29:35.590Z,12.53
2023-04-22T07:32:02.077Z,12.73
2023-04-22T07:34:28.610Z,12.90
2023-04-22T07:36:55.260Z,12.96
2023-04-22T07:39:22.799Z,13.02
2023-04-22T07:41:49.375Z,13.03
2023-04-22T07:44:18.464Z,13.00
2023-04-22T07:46:45.007Z,13.03
2023-04-22T07:49:13.956Z,13.03
2023-04-22T07:51:41.163Z,13.11
2023-04-22T07:54:07.724Z,13.09
2023-04-22T07:56:34.626Z,13.13
2023-04-22T07:59:01.214Z,13.07
2023-04-22T08:01:27.684Z,13.03
2023-04-22T08:03:54.293Z,13.01
2023-04-22T08:06:20.973Z,13.00
2023-04-22T08:08:47.422Z,13.07
2023-04-22T08:11:13.919Z,13.17
2023-04-22T08:13:40.436Z,13.20
2023-04-22T08:16:07.545Z,13.34
2023-04-22T08:18:34.073Z,13.44
2023-04-22T08:21:02.421Z,13.64
2023-04-22T08:23:28.864Z,13.75
2023-04-22T08:25:55.453Z,13.90
2023-04-22T08:28:21.926Z,14.10
2023-04-22T08:30:48.331Z,14.25
2023-04-22T08:33:14.768Z,14.40
2023-04-22T08:35:41.431Z,14.52
2023-04-22T08:38:08.024Z,14.74
2023-04-22T08:40:35.181Z,14.83
2023-04-22T08:43:02.115Z,15.05
2023-04-22T08:45:29.773Z,15.21
2023-04-22T08:47:57.464Z,15.48
2023-04-22T08:50:24.169Z,15.65
2023-04-22T08:52:50.785Z,15.86
2023-04-22T08:55:17.523Z,16.05
2023-04-22T08:57:44.857Z,16.24
2023-04-22T09:00:12.063Z,16.39
2023-04-22T09:02:44.891Z,16.60
2023-04-22T09:05:13.586Z,16.73
2023-04-22T09:07:41.269Z,16.91
2023-04-22T09:10:08.480Z,17.21
2023-04-22T09:12:34.914Z,17.54
2023-04-22T09:15:01.366Z,17.89
2023-04-22T09:17:33.073Z,18.22
